Terminal Aerodrome Forecast
Issued by NWS Quad Cities IA IL

Home | Current Version | Previous Version | Text Only | Print | Product List | Glossary On
Versions: 1 2 3 4 5 6 7 8 9 10 11 12 13 14 15 16 17 18 19 20 21 22 23 24
892
FTUS43 KDVN 270520
TAFDBQ
TAF
KDBQ 270520Z 2706/2806 04008KT P6SM VCTS BKN040CB OVC090
      TEMPO 2706/2710 2SM TSRA BR BKN020CB OVC030
     FM271000 11005KT 6SM BR VCSH SCT006 OVC012
     FM271600 20005KT P6SM FEW035 SCT250=

USA.gov is the U.S. government's official web portal to all federal, state and local government web resources and services.